createdAt,value
2017-10-19T00:00:55.641Z,0.00
2017-10-19T00:01:55.685Z,0.00
2017-10-19T00:02:55.670Z,0.00
2017-10-19T00:03:55.716Z,0.00
2017-10-19T00:04:55.763Z,0.00
2017-10-19T00:05:55.812Z,0.00
2017-10-19T00:06:55.924Z,0.00
2017-10-19T00:07:55.904Z,0.00
2017-10-19T00:08:55.950Z,0.00
2017-10-19T00:09:55.995Z,0.00
2017-10-19T00:10:56.043Z,0.00
2017-10-19T00:11:56.151Z,0.00
2017-10-19T00:12:56.135Z,0.00
2017-10-19T00:13:56.181Z,0.00
2017-10-19T00:14:56.228Z,0.00
2017-10-19T00:15:56.274Z,0.00
2017-10-19T00:16:56.402Z,0.00
2017-10-19T00:17:56.365Z,0.00
2017-10-19T00:18:56.412Z,0.00
2017-10-19T00:19:56.458Z,0.00
2017-10-19T00:20:56.505Z,0.00
2017-10-19T00:21:56.618Z,0.00
2017-10-19T00:22:56.601Z,0.00
2017-10-19T00:23:56.644Z,0.00
2017-10-19T00:24:56.691Z,0.00
2017-10-19T00:25:56.738Z,0.00
2017-10-19T00:26:56.848Z,0.00
2017-10-19T00:27:56.896Z,0.00
2017-10-19T00:28:56.878Z,0.00
2017-10-19T00:29:56.919Z,0.00
2017-10-19T00:30:56.969Z,0.00
2017-10-19T00:31:57.016Z,0.00
2017-10-19T00:32:57.126Z,0.00
2017-10-19T00:33:57.107Z,0.00
2017-10-19T00:34:57.163Z,0.00
2017-10-19T00:35:57.202Z,0.00
2017-10-19T00:36:57.247Z,0.00
2017-10-19T00:37:57.362Z,0.00
2017-10-19T00:38:57.339Z,0.00
2017-10-19T00:39:57.386Z,0.00
2017-10-19T00:40:57.433Z,0.00
2017-10-19T00:41:57.480Z,0.00
2017-10-19T00:42:57.590Z,0.00
2017-10-19T00:43:57.574Z,0.00
2017-10-19T00:44:57.620Z,0.00
2017-10-19T00:45:57.664Z,0.00
2017-10-19T00:46:57.717Z,0.00
2017-10-19T00:47:57.836Z,0.00
2017-10-19T00:48:57.804Z,0.00
2017-10-19T00:49:57.851Z,0.00
2017-10-19T00:50:57.895Z,0.00
2017-10-19T00:51:57.941Z,0.00
2017-10-19T00:52:58.062Z,0.00
2017-10-19T00:53:58.035Z,0.00
2017-10-19T00:54:58.086Z,0.00
2017-10-19T00:55:58.128Z,0.00
2017-10-19T00:56:58.174Z,0.00
2017-10-19T00:57:58.298Z,0.00
2017-10-19T00:58:58.266Z,0.00
2017-10-19T00:59:58.309Z,0.00
2017-10-19T01:00:58.359Z,0.00
2017-10-19T01:01:58.405Z,0.00
2017-10-19T01:02:58.534Z,0.00
2017-10-19T01:03:58.496Z,0.00
2017-10-19T01:04:58.545Z,0.00
2017-10-19T01:05:58.590Z,0.00
2017-10-19T01:06:58.635Z,0.00
2017-10-19T01:07:58.746Z,0.00
2017-10-19T01:08:58.791Z,0.00
2017-10-19T01:09:58.774Z,0.00
2017-10-19T01:10:58.822Z,0.00
2017-10-19T01:11:58.867Z,0.00
2017-10-19T01:12:58.913Z,0.00
2017-10-19T01:13:59.023Z,0.00
2017-10-19T01:14:59.007Z,0.00
2017-10-19T01:15:59.052Z,0.00
2017-10-19T01:16:59.101Z,0.00
2017-10-19T01:17:59.144Z,0.00
2017-10-19T01:18:59.255Z,0.00
2017-10-19T01:19:59.235Z,0.00
2017-10-19T01:20:59.282Z,0.00
2017-10-19T01:21:59.328Z,0.00
2017-10-19T01:22:59.375Z,0.00
2017-10-19T01:23:59.501Z,0.00
2017-10-19T01:24:59.465Z,0.00
2017-10-19T01:25:59.513Z,0.00
2017-10-19T01:26:59.559Z,0.00
2017-10-19T01:27:59.603Z,0.00
2017-10-19T01:28:59.732Z,0.00
2017-10-19T01:29:59.697Z,0.00
2017-10-19T01:30:59.746Z,0.00
2017-10-19T01:31:59.789Z,0.00
2017-10-19T01:32:59.834Z,0.00
2017-10-19T01:33:59.963Z,0.00
2017-10-19T01:34:59.923Z,0.00
2017-10-19T01:35:59.972Z,0.00
2017-10-19T01:37:00.035Z,0.00
2017-10-19T01:38:00.065Z,0.00
2017-10-19T01:39:00.177Z,0.00
2017-10-19T01:40:00.155Z,0.00
2017-10-19T01:41:00.201Z,0.00
2017-10-19T01:42:01.028Z,0.00
2017-10-19T01:43:00.290Z,0.00
2017-10-19T01:44:00.403Z,0.00
2017-10-19T01:45:00.457Z,0.00
2017-10-19T01:46:00.432Z,0.00
2017-10-19T01:47:00.477Z,0.00
2017-10-19T01:48:00.524Z,0.00
2017-10-19T01:49:00.570Z,0.00
2017-10-19T01:50:00.680Z,0.00
2017-10-19T01:51:00.660Z,0.00
2017-10-19T01:52:00.708Z,0.00
2017-10-19T01:53:00.758Z,0.00
2017-10-19T01:54:00.798Z,0.00
2017-10-19T01:55:00.908Z,0.00
2017-10-19T01:56:00.892Z,0.00
2017-10-19T01:57:00.935Z,0.00
2017-10-19T01:58:00.982Z,0.00
2017-10-19T01:59:01.028Z,0.00
2017-10-19T02:00:01.181Z,0.00
2017-10-19T02:01:01.122Z,0.00
2017-10-19T02:02:01.161Z,0.00
2017-10-19T02:03:01.211Z,0.00
2017-10-19T02:04:01.254Z,0.00
2017-10-19T02:05:01.367Z,0.00
2017-10-19T02:06:01.347Z,0.00
2017-10-19T02:07:01.394Z,0.00
2017-10-19T02:08:01.441Z,0.00
2017-10-19T02:09:01.488Z,0.00
2017-10-19T02:10:01.619Z,0.00
2017-10-19T02:11:01.579Z,0.00
2017-10-19T02:12:01.626Z,0.00
2017-10-19T02:13:01.669Z,0.00
2017-10-19T02:14:01.715Z,0.00
2017-10-19T02:15:01.859Z,0.00
2017-10-19T02:16:01.827Z,0.00
2017-10-19T02:17:01.853Z,0.00
2017-10-19T02:18:01.899Z,0.00
2017-10-19T02:19:01.944Z,0.00
2017-10-19T02:20:02.056Z,0.00
2017-10-19T02:21:02.101Z,0.00
2017-10-19T02:22:02.084Z,0.00
2017-10-19T02:23:02.128Z,0.00
2017-10-19T02:24:02.180Z,0.00
2017-10-19T02:25:02.291Z,0.00
2017-10-19T02:26:02.334Z,0.00
2017-10-19T02:27:02.315Z,0.00
2017-10-19T02:28:02.359Z,0.00
2017-10-19T02:29:02.423Z,0.00
2017-10-19T02:30:02.449Z,0.00
2017-10-19T02:31:02.570Z,0.00
2017-10-19T02:32:02.552Z,0.00
2017-10-19T02:33:02.598Z,0.00
2017-10-19T02:34:02.636Z,0.00
2017-10-19T02:35:02.681Z,0.00
2017-10-19T02:36:02.793Z,0.00
2017-10-19T02:37:02.775Z,0.00
2017-10-19T02:38:02.820Z,0.00
2017-10-19T02:39:02.864Z,0.00
2017-10-19T02:40:02.914Z,0.00
2017-10-19T02:41:03.021Z,0.00
2017-10-19T02:42:03.106Z,0.00
2017-10-19T02:43:03.050Z,0.00
2017-10-19T02:44:03.095Z,0.00
2017-10-19T02:45:03.141Z,0.00
2017-10-19T02:46:03.252Z,0.00
2017-10-19T02:47:03.235Z,0.00
2017-10-19T02:48:03.280Z,0.00
2017-10-19T02:49:03.326Z,0.00
2017-10-19T02:50:03.372Z,0.00
2017-10-19T02:51:03.489Z,0.00
2017-10-19T02:52:03.480Z,0.00
2017-10-19T02:53:03.512Z,0.00
2017-10-19T02:54:03.556Z,0.00
2017-10-19T02:55:03.604Z,0.00
2017-10-19T02:56:03.714Z,0.00
2017-10-19T02:57:03.699Z,0.00
2017-10-19T02:58:03.741Z,0.00
2017-10-19T02:59:03.787Z,0.00
2017-10-19T03:00:03.834Z,0.00
2017-10-19T03:01:03.944Z,0.00
2017-10-19T03:02:03.924Z,0.00
2017-10-19T03:03:03.974Z,0.00
2017-10-19T03:04:04.026Z,0.00
2017-10-19T03:05:04.070Z,0.00
2017-10-19T03:06:04.171Z,0.00
2017-10-19T03:07:04.155Z,0.00
2017-10-19T03:08:04.201Z,0.00
2017-10-19T03:09:04.248Z,0.00
2017-10-19T03:10:04.293Z,0.00
2017-10-19T03:11:04.418Z,0.00
2017-10-19T03:12:04.382Z,0.00
2017-10-19T03:13:04.430Z,0.00
2017-10-19T03:14:04.476Z,0.00
2017-10-19T03:15:04.523Z,0.00
2017-10-19T03:16:04.637Z,0.00
2017-10-19T03:17:04.614Z,0.00
2017-10-19T03:18:04.663Z,0.00
2017-10-19T03:19:04.705Z,0.00
2017-10-19T03:20:04.754Z,0.00
2017-10-19T03:21:04.883Z,0.00
2017-10-19T03:22:04.844Z,0.00
2017-10-19T03:23:04.889Z,0.00
2017-10-19T03:24:04.936Z,0.00
2017-10-19T03:25:04.982Z,0.00
2017-10-19T03:26:05.105Z,0.00
2017-10-19T03:27:05.137Z,0.00
2017-10-19T03:28:05.119Z,0.00
2017-10-19T03:29:05.166Z,0.00
2017-10-19T03:30:05.210Z,0.00
2017-10-19T03:31:05.338Z,0.00
2017-10-19T03:32:05.374Z,0.00
2017-10-19T03:33:05.353Z,0.00
2017-10-19T03:34:05.394Z,0.00
2017-10-19T03:35:05.439Z,0.00
2017-10-19T03:36:05.485Z,0.00
2017-10-19T03:37:05.615Z,0.00
2017-10-19T03:38:05.581Z,0.00
2017-10-19T03:39:05.622Z,0.00
2017-10-19T03:40:05.669Z,0.00
2017-10-19T03:41:05.725Z,0.00
2017-10-19T03:42:05.837Z,0.00
2017-10-19T03:43:05.803Z,0.00
2017-10-19T03:44:05.855Z,0.00
2017-10-19T03:45:05.899Z,0.00
2017-10-19T03:46:05.941Z,0.00
2017-10-19T03:47:06.052Z,0.00
2017-10-19T03:48:06.097Z,0.00
2017-10-19T03:49:06.085Z,0.00
2017-10-19T03:50:06.125Z,0.00
2017-10-19T03:51:06.170Z,0.00
2017-10-19T03:52:06.280Z,0.00
2017-10-19T03:53:06.336Z,0.00
2017-10-19T03:54:06.307Z,0.00
2017-10-19T03:55:06.353Z,0.00
2017-10-19T03:56:06.397Z,0.00
2017-10-19T03:57:06.450Z,0.00
2017-10-19T03:58:06.554Z,0.00
2017-10-19T03:59:06.535Z,0.00
2017-10-19T04:00:06.581Z,0.00
2017-10-19T04:01:06.630Z,0.00
2017-10-19T04:02:06.672Z,0.00
2017-10-19T04:03:06.780Z,0.00
2017-10-19T04:04:06.770Z,0.00
2017-10-19T04:05:06.810Z,0.00
2017-10-19T04:06:06.853Z,0.00
2017-10-19T04:07:06.900Z,0.00
2017-10-19T04:08:07.011Z,0.00
2017-10-19T04:09:06.996Z,0.00
2017-10-19T04:10:07.045Z,0.00
2017-10-19T04:11:07.084Z,0.00
2017-10-19T04:12:07.128Z,0.00
2017-10-19T04:13:07.238Z,0.00
2017-10-19T04:14:07.221Z,0.00
2017-10-19T04:15:07.266Z,0.00
2017-10-19T04:16:07.312Z,0.00
2017-10-19T04:17:07.364Z,0.00
2017-10-19T04:18:07.466Z,0.00
2017-10-19T04:19:07.450Z,0.00
2017-10-19T04:20:07.495Z,0.00
2017-10-19T04:21:07.543Z,0.00
2017-10-19T04:22:07.584Z,0.00
2017-10-19T04:23:07.697Z,0.00
2017-10-19T04:24:07.698Z,0.00
2017-10-19T04:25:07.727Z,0.00
2017-10-19T04:26:07.772Z,0.00
2017-10-19T04:27:07.815Z,0.00
2017-10-19T04:28:07.925Z,0.00
2017-10-19T04:29:07.912Z,0.00
2017-10-19T04:30:07.955Z,0.00
2017-10-19T04:31:07.998Z,0.00
2017-10-19T04:32:08.046Z,0.00
2017-10-19T04:33:08.155Z,0.00
2017-10-19T04:34:08.136Z,0.00
2017-10-19T04:35:08.183Z,0.00
2017-10-19T04:36:08.235Z,0.00
2017-10-19T04:37:08.272Z,0.00
2017-10-19T04:38:08.382Z,0.00
2017-10-19T04:39:08.367Z,0.00
2017-10-19T04:40:08.414Z,0.00
2017-10-19T04:41:08.455Z,0.00
2017-10-19T04:42:08.504Z,0.00
2017-10-19T04:43:08.628Z,0.00
2017-10-19T04:44:08.595Z,0.00
2017-10-19T04:45:08.641Z,0.00
2017-10-19T04:46:08.689Z,0.00
2017-10-19T04:47:08.733Z,0.00
2017-10-19T04:48:08.840Z,0.00
2017-10-19T04:49:08.890Z,0.00
2017-10-19T04:50:08.870Z,0.00
2017-10-19T04:51:08.914Z,0.00
2017-10-19T04:52:08.958Z,0.00
2017-10-19T04:53:09.008Z,0.00
2017-10-19T04:54:09.115Z,0.00
2017-10-19T04:55:09.101Z,0.00
2017-10-19T04:56:09.147Z,0.00
2017-10-19T04:57:09.189Z,0.00
2017-10-19T04:58:09.236Z,0.00
2017-10-19T04:59:09.343Z,0.00
2017-10-19T05:00:09.326Z,0.00
2017-10-19T05:01:09.368Z,0.00
2017-10-19T05:02:09.419Z,0.00
2017-10-19T05:03:09.463Z,0.00
2017-10-19T05:04:09.588Z,0.00
2017-10-19T05:05:09.555Z,0.00
2017-10-19T05:06:09.596Z,0.00
2017-10-19T05:07:09.644Z,0.00
2017-10-19T05:08:09.686Z,0.00
2017-10-19T05:09:09.799Z,0.00
2017-10-19T05:10:09.782Z,0.00
2017-10-19T05:11:09.827Z,0.00
2017-10-19T05:12:09.880Z,0.00
2017-10-19T05:13:09.917Z,0.00
2017-10-19T05:14:10.028Z,0.00
2017-10-19T05:15:10.008Z,0.00
2017-10-19T05:16:10.054Z,0.00
2017-10-19T05:17:10.098Z,0.00
2017-10-19T05:18:10.148Z,0.00
2017-10-19T05:19:10.256Z,0.00
2017-10-19T05:20:10.236Z,0.00
2017-10-19T05:21:10.282Z,0.00
2017-10-19T05:22:10.324Z,0.00
2017-10-19T05:23:10.371Z,0.00
2017-10-19T05:24:10.496Z,0.00
2017-10-19T05:25:10.462Z,0.00
2017-10-19T05:26:10.511Z,0.00
2017-10-19T05:27:10.555Z,0.00
2017-10-19T05:28:10.606Z,0.00
2017-10-19T05:29:10.728Z,0.00
2017-10-19T05:30:10.689Z,0.00
2017-10-19T05:31:10.733Z,0.00
2017-10-19T05:32:10.780Z,0.00
2017-10-19T05:33:10.826Z,0.00
2017-10-19T05:34:10.953Z,0.00
2017-10-19T05:35:11.572Z,0.00
2017-10-19T05:36:10.961Z,0.00
2017-10-19T05:37:11.013Z,0.00
2017-10-19T05:38:11.052Z,5.63
2017-10-19T05:39:11.634Z,5.63
2017-10-19T05:40:11.255Z,5.63
2017-10-19T05:41:11.192Z,5.63
2017-10-19T05:42:11.239Z,5.63
2017-10-19T05:43:11.281Z,5.63
2017-10-19T05:44:11.359Z,5.63
2017-10-19T05:45:11.434Z,11.25
2017-10-19T05:46:11.415Z,11.25
2017-10-19T05:47:11.462Z,11.25
2017-10-19T05:48:11.506Z,11.25
2017-10-19T05:49:11.553Z,16.88
2017-10-19T05:50:11.662Z,16.88
2017-10-19T05:51:11.643Z,16.88
2017-10-19T05:52:11.695Z,22.50
2017-10-19T05:53:11.734Z,22.50
2017-10-19T05:54:11.778Z,22.50
2017-10-19T05:55:11.901Z,22.50
2017-10-19T05:56:11.871Z,28.13
2017-10-19T05:57:11.915Z,28.13
2017-10-19T05:58:11.959Z,28.13
2017-10-19T05:59:12.012Z,33.75
2017-10-19T06:00:12.119Z,33.75
2017-10-19T06:01:12.160Z,39.38
2017-10-19T06:02:12.138Z,39.38
2017-10-19T06:03:12.187Z,39.38
2017-10-19T06:04:12.231Z,45.00
2017-10-19T06:05:12.279Z,45.00
2017-10-19T06:06:12.388Z,50.63
2017-10-19T06:07:12.371Z,50.63
2017-10-19T06:08:12.416Z,50.63
2017-10-19T06:09:12.460Z,56.25
2017-10-19T06:10:12.501Z,56.25
2017-10-19T06:11:12.614Z,61.88
2017-10-19T06:12:12.594Z,61.88
2017-10-19T06:13:12.641Z,67.50
2017-10-19T06:14:12.685Z,67.50
2017-10-19T06:15:12.734Z,73.13
2017-10-19T06:16:12.847Z,73.13
2017-10-19T06:17:12.822Z,78.75
2017-10-19T06:18:12.866Z,84.38
2017-10-19T06:19:12.913Z,90.00
2017-10-19T06:20:12.960Z,90.00
2017-10-19T06:21:13.067Z,95.63
2017-10-19T06:22:13.048Z,95.63
2017-10-19T06:23:13.097Z,95.63
2017-10-19T06:24:13.141Z,101.25
2017-10-19T06:25:13.185Z,101.25
2017-10-19T06:26:13.296Z,106.88
2017-10-19T06:27:13.281Z,112.50
2017-10-19T06:28:13.322Z,112.50
2017-10-19T06:29:13.369Z,118.13
2017-10-19T06:30:13.415Z,118.13
2017-10-19T06:31:13.529Z,123.75
2017-10-19T06:32:13.501Z,129.38
2017-10-19T06:33:13.551Z,135.00
2017-10-19T06:34:13.595Z,140.63
2017-10-19T06:35:13.641Z,146.25
2017-10-19T06:36:13.757Z,151.88
2017-10-19T06:37:13.735Z,163.13
2017-10-19T06:38:13.779Z,168.75
2017-10-19T06:39:13.825Z,174.38
2017-10-19T06:40:13.869Z,174.38
2017-10-19T06:41:13.982Z,185.63
2017-10-19T06:42:13.962Z,191.25
2017-10-19T06:43:14.007Z,202.50
2017-10-19T06:44:14.054Z,213.75
2017-10-19T06:45:14.101Z,225.00
2017-10-19T06:46:14.210Z,225.00
2017-10-19T06:47:14.254Z,236.25
2017-10-19T06:48:14.237Z,241.88
2017-10-19T06:49:14.285Z,241.88
2017-10-19T06:50:14.328Z,236.25
2017-10-19T06:51:14.375Z,236.25
2017-10-19T06:52:14.490Z,241.88
2017-10-19T06:53:14.471Z,253.13
2017-10-19T06:54:14.515Z,258.75
2017-10-19T06:55:14.561Z,264.38
2017-10-19T06:56:14.608Z,275.63
2017-10-19T06:57:14.719Z,286.88
2017-10-19T06:58:14.702Z,292.50
2017-10-19T06:59:14.748Z,286.88
2017-10-19T07:00:14.796Z,292.50
2017-10-19T07:01:14.842Z,309.38
2017-10-19T07:02:14.951Z,326.25
2017-10-19T07:03:14.936Z,343.13
2017-10-19T07:04:14.987Z,348.75
2017-10-19T07:05:15.031Z,365.63
2017-10-19T07:06:15.077Z,371.25
2017-10-19T07:07:15.188Z,376.88
2017-10-19T07:08:15.172Z,376.88
2017-10-19T07:09:15.220Z,382.50
2017-10-19T07:10:15.269Z,382.50
2017-10-19T07:11:15.314Z,382.50
2017-10-19T07:12:15.424Z,376.88
2017-10-19T07:13:15.413Z,337.50
2017-10-19T07:14:15.464Z,303.75
2017-10-19T07:15:15.511Z,326.25
2017-10-19T07:16:15.562Z,365.63
2017-10-19T07:17:15.671Z,376.88
2017-10-19T07:18:15.651Z,382.50
2017-10-19T07:19:15.700Z,382.50
2017-10-19T07:20:15.752Z,365.63
2017-10-19T07:21:15.799Z,348.75
2017-10-19T07:22:15.910Z,343.13
2017-10-19T07:23:15.900Z,354.38
2017-10-19T07:24:15.947Z,376.88
2017-10-19T07:25:15.994Z,405.00
2017-10-19T07:26:16.047Z,405.00
2017-10-19T07:27:16.154Z,399.38
2017-10-19T07:28:16.140Z,393.75
2017-10-19T07:29:16.188Z,438.75
2017-10-19T07:30:16.235Z,455.63
2017-10-19T07:31:16.284Z,455.63
2017-10-19T07:32:16.397Z,455.63
2017-10-19T07:33:16.383Z,562.50
2017-10-19T07:34:16.430Z,585.00
2017-10-19T07:35:16.479Z,579.38
2017-10-19T07:36:16.529Z,551.25
2017-10-19T07:37:16.642Z,528.75
2017-10-19T07:38:16.627Z,573.75
2017-10-19T07:39:16.680Z,568.13
2017-10-19T07:40:16.728Z,562.50
2017-10-19T07:41:16.778Z,540.00
2017-10-19T07:42:16.908Z,433.13
2017-10-19T07:43:16.870Z,393.75
2017-10-19T07:44:17.546Z,382.50
2017-10-19T07:45:16.972Z,399.38
2017-10-19T07:46:17.022Z,399.38
2017-10-19T07:47:17.135Z,410.63
2017-10-19T07:48:17.181Z,416.25
2017-10-19T07:49:17.170Z,416.25
2017-10-19T07:50:17.219Z,421.88
2017-10-19T07:51:17.269Z,421.88
2017-10-19T07:52:17.317Z,427.50
2017-10-19T07:53:17.436Z,427.50
2017-10-19T07:54:17.419Z,444.38
2017-10-19T07:55:17.468Z,421.88
2017-10-19T07:56:17.518Z,433.13
2017-10-19T07:57:17.567Z,540.00
2017-10-19T07:58:17.685Z,697.50
2017-10-19T07:59:17.660Z,697.50
2017-10-19T08:00:17.715Z,691.88
2017-10-19T08:01:17.764Z,686.25
2017-10-19T08:02:17.811Z,714.38
2017-10-19T08:03:17.929Z,675.00
2017-10-19T08:04:17.912Z,500.63
2017-10-19T08:05:17.961Z,528.75
2017-10-19T08:06:18.012Z,540.00
2017-10-19T08:07:18.061Z,545.63
2017-10-19T08:08:18.181Z,556.88
2017-10-19T08:09:18.161Z,568.13
2017-10-19T08:10:18.215Z,590.63
2017-10-19T08:11:18.260Z,618.75
2017-10-19T08:12:18.309Z,646.88
2017-10-19T08:13:18.445Z,781.88
2017-10-19T08:14:18.411Z,1119.38
2017-10-19T08:15:18.460Z,1158.75
2017-10-19T08:16:18.510Z,1203.75
2017-10-19T08:17:18.561Z,1260.00
2017-10-19T08:18:18.685Z,1091.25
2017-10-19T08:19:18.657Z,1271.25
2017-10-19T08:20:18.707Z,922.50
2017-10-19T08:21:18.758Z,1288.13
2017-10-19T08:22:18.810Z,1265.63
2017-10-19T08:23:18.921Z,1226.25
2017-10-19T08:24:18.980Z,1057.50
2017-10-19T08:25:18.959Z,770.63
2017-10-19T08:26:19.005Z,849.38
2017-10-19T08:27:19.060Z,871.88
2017-10-19T08:28:19.112Z,753.75
2017-10-19T08:29:19.229Z,1355.63
2017-10-19T08:30:19.217Z,1372.50
2017-10-19T08:31:19.262Z,1389.38
2017-10-19T08:32:19.332Z,1400.63
2017-10-19T08:33:19.366Z,1400.63
2017-10-19T08:34:19.482Z,1400.63
2017-10-19T08:35:19.468Z,1333.13
2017-10-19T08:36:20.057Z,1035.00
2017-10-19T08:37:19.574Z,1327.50
2017-10-19T08:38:19.624Z,1276.88
2017-10-19T08:39:19.821Z,888.75
2017-10-19T08:40:19.730Z,607.50
2017-10-19T08:41:19.783Z,607.50
2017-10-19T08:42:19.834Z,714.38
2017-10-19T08:43:19.894Z,618.75
2017-10-19T08:44:20.024Z,1181.25
2017-10-19T08:45:19.990Z,1181.25
2017-10-19T08:46:20.044Z,1029.38
2017-10-19T08:47:20.094Z,1327.50
2017-10-19T08:48:20.149Z,658.13
2017-10-19T08:49:20.264Z,703.13
2017-10-19T08:50:20.319Z,703.13
2017-10-19T08:51:20.304Z,573.75
2017-10-19T08:52:20.357Z,585.00
2017-10-19T08:53:20.411Z,624.38
2017-10-19T08:54:20.461Z,551.25
2017-10-19T08:55:20.672Z,517.50
2017-10-19T08:56:20.567Z,500.63
2017-10-19T08:57:20.640Z,500.63
2017-10-19T08:58:20.671Z,511.88
2017-10-19T08:59:20.730Z,528.75
2017-10-19T09:00:20.919Z,556.88
2017-10-19T09:01:20.827Z,646.88
2017-10-19T09:02:20.879Z,568.13
2017-10-19T09:03:20.931Z,939.38
2017-10-19T09:04:20.988Z,703.13
2017-10-19T09:05:21.099Z,1237.50
2017-10-19T09:06:21.086Z,1265.63
2017-10-19T09:07:21.136Z,1243.13
2017-10-19T09:08:21.189Z,1243.13
2017-10-19T09:09:21.240Z,1046.25
2017-10-19T09:10:21.372Z,1068.75
2017-10-19T09:11:21.347Z,1164.38
2017-10-19T09:12:21.412Z,1141.88
2017-10-19T09:13:21.450Z,1119.38
2017-10-19T09:14:21.503Z,1108.13
2017-10-19T09:15:21.621Z,1102.50
2017-10-19T09:16:21.614Z,1091.25
2017-10-19T09:17:21.658Z,1080.00
2017-10-19T09:18:21.715Z,1080.00
2017-10-19T09:19:21.768Z,1080.00
2017-10-19T09:20:21.886Z,1091.25
2017-10-19T09:21:21.938Z,1080.00
2017-10-19T09:22:21.929Z,1074.38
2017-10-19T09:23:21.984Z,1080.00
2017-10-19T09:24:22.038Z,1091.25
2017-10-19T09:25:22.093Z,1113.75
2017-10-19T09:26:22.211Z,1113.75
2017-10-19T09:27:22.202Z,1130.63
2017-10-19T09:28:22.257Z,1136.25
2017-10-19T09:29:22.311Z,1158.75
2017-10-19T09:30:22.366Z,1158.75
2017-10-19T09:31:22.484Z,1170.00
2017-10-19T09:32:22.476Z,1186.88
2017-10-19T09:33:22.531Z,1220.63
2017-10-19T09:34:22.584Z,1243.13
2017-10-19T09:35:22.645Z,1198.13
2017-10-19T09:36:22.769Z,838.13
2017-10-19T09:37:22.754Z,742.50
2017-10-19T09:38:22.809Z,748.13
2017-10-19T09:39:22.863Z,804.38
2017-10-19T09:40:22.920Z,630.00
2017-10-19T09:41:23.044Z,720.00
2017-10-19T09:42:23.030Z,646.88
2017-10-19T09:43:23.087Z,1248.75
2017-10-19T09:44:23.139Z,1186.88
2017-10-19T09:45:23.202Z,1091.25
2017-10-19T09:46:23.325Z,478.13
2017-10-19T09:47:23.306Z,506.25
2017-10-19T09:48:23.360Z,697.50
2017-10-19T09:49:23.412Z,1091.25
2017-10-19T09:50:23.466Z,1158.75
2017-10-19T09:51:23.596Z,770.63
2017-10-19T09:52:23.576Z,1198.13
2017-10-19T09:53:23.631Z,849.38
2017-10-19T09:54:23.683Z,759.38
2017-10-19T09:55:23.740Z,551.25
2017-10-19T09:56:23.858Z,461.25
2017-10-19T09:57:23.910Z,495.00
2017-10-19T09:58:23.901Z,1113.75
2017-10-19T09:59:23.956Z,1125.00
2017-10-19T10:00:24.005Z,1209.38
2017-10-19T10:01:24.063Z,1192.50
2017-10-19T10:02:24.180Z,1192.50
2017-10-19T10:03:24.174Z,1203.75
2017-10-19T10:04:24.224Z,1220.63
2017-10-19T10:05:24.278Z,1220.63
2017-10-19T10:06:24.330Z,1203.75
2017-10-19T10:07:24.448Z,1220.63
2017-10-19T10:08:24.440Z,1231.88
2017-10-19T10:09:24.501Z,1254.38
2017-10-19T10:10:24.546Z,1265.63
2017-10-19T10:11:24.603Z,1271.25
2017-10-19T10:12:24.722Z,1271.25
2017-10-19T10:13:24.710Z,1282.50
2017-10-19T10:14:24.764Z,1282.50
2017-10-19T10:15:24.817Z,1288.13
2017-10-19T10:16:24.868Z,1288.13
2017-10-19T10:17:24.992Z,1293.75
2017-10-19T10:18:24.980Z,1310.63
2017-10-19T10:19:25.035Z,1327.50
2017-10-19T10:20:25.090Z,1327.50
2017-10-19T10:21:25.144Z,1350.00
2017-10-19T10:22:25.263Z,1361.25
2017-10-19T10:23:25.256Z,1372.50
2017-10-19T10:24:25.310Z,1383.75
2017-10-19T10:25:25.365Z,1395.00
2017-10-19T10:26:25.420Z,1411.88
2017-10-19T10:27:25.538Z,1434.38
2017-10-19T10:28:25.532Z,1451.25
2017-10-19T10:29:25.589Z,1456.88
2017-10-19T10:30:25.647Z,1485.00
2017-10-19T10:31:25.696Z,1490.63
2017-10-19T10:32:25.817Z,1501.88
2017-10-19T10:33:25.809Z,1513.13
2017-10-19T10:34:25.863Z,1513.13
2017-10-19T10:35:25.917Z,1524.38
2017-10-19T10:36:25.974Z,1535.63
2017-10-19T10:37:26.188Z,1535.63
2017-10-19T10:38:26.089Z,1541.25
2017-10-19T10:39:26.141Z,1541.25
2017-10-19T10:40:26.199Z,1524.38
2017-10-19T10:41:26.253Z,1535.63
2017-10-19T10:42:26.389Z,1535.63
2017-10-19T10:43:26.370Z,1535.63
2017-10-19T10:44:26.417Z,1485.00
2017-10-19T10:45:26.476Z,1428.75
2017-10-19T10:46:26.534Z,1411.88
2017-10-19T10:47:26.668Z,1428.75
2017-10-19T10:48:26.648Z,1473.75
2017-10-19T10:49:26.698Z,1468.13
2017-10-19T10:50:26.752Z,1468.13
2017-10-19T10:51:26.813Z,1479.38
2017-10-19T10:52:26.928Z,1501.88
2017-10-19T10:53:26.983Z,1423.13
2017-10-19T10:54:26.973Z,1524.38
2017-10-19T10:55:27.029Z,1518.75
2017-10-19T10:56:27.083Z,1546.88
2017-10-19T10:57:27.138Z,1558.13
2017-10-19T10:58:27.259Z,1524.38
2017-10-19T10:59:27.247Z,1541.25
2017-10-19T11:00:27.301Z,1541.25
2017-10-19T11:01:27.359Z,1406.25
2017-10-19T11:02:27.411Z,1321.88
2017-10-19T11:03:27.557Z,1057.50
2017-10-19T11:04:27.520Z,1046.25
2017-10-19T11:05:27.578Z,995.63
2017-10-19T11:06:27.637Z,1018.13
2017-10-19T11:07:27.690Z,1338.75
2017-10-19T11:08:27.805Z,1181.25
2017-10-19T11:09:27.796Z,1254.38
2017-10-19T11:10:27.851Z,1535.63
2017-10-19T11:11:27.905Z,1552.50
2017-10-19T11:12:28.021Z,1546.88
2017-10-19T11:13:28.075Z,1541.25
2017-10-19T11:14:28.066Z,1513.13
2017-10-19T11:15:28.121Z,1485.00
2017-10-19T11:16:28.178Z,1366.88
2017-10-19T11:17:28.233Z,1113.75
2017-10-19T11:18:28.355Z,1417.50
2017-10-19T11:19:28.339Z,1378.13
2017-10-19T11:20:28.394Z,1372.50
2017-10-19T11:21:28.449Z,1355.63
2017-10-19T11:22:28.506Z,1018.13
2017-10-19T11:23:28.640Z,1096.88
2017-10-19T11:24:28.612Z,1243.13
2017-10-19T11:25:28.670Z,1192.50
2017-10-19T11:26:28.728Z,1186.88
2017-10-19T11:27:28.777Z,1434.38
2017-10-19T11:28:28.895Z,1440.00
2017-10-19T11:29:28.953Z,1378.13
2017-10-19T11:30:28.937Z,1338.75
2017-10-19T11:31:28.993Z,1389.38
2017-10-19T11:32:29.047Z,1423.13
2017-10-19T11:33:29.107Z,1119.38
2017-10-19T11:34:29.241Z,1192.50
2017-10-19T11:35:29.210Z,905.63
2017-10-19T11:36:29.263Z,1119.38
2017-10-19T11:37:29.315Z,1074.38
2017-10-19T11:38:29.370Z,838.13
2017-10-19T11:39:29.506Z,1091.25
2017-10-19T11:40:29.481Z,1226.25
2017-10-19T11:41:29.531Z,1243.13
2017-10-19T11:42:29.583Z,1299.38
2017-10-19T11:43:29.636Z,1344.38
2017-10-19T11:44:29.767Z,1310.63
2017-10-19T11:45:29.742Z,1299.38
2017-10-19T11:46:29.793Z,1276.88
2017-10-19T11:47:29.847Z,1265.63
2017-10-19T11:48:29.900Z,1085.63
2017-10-19T11:49:30.038Z,1231.88
2017-10-19T11:50:30.007Z,1209.38
2017-10-19T11:51:30.058Z,1203.75
2017-10-19T11:52:30.113Z,1192.50
2017-10-19T11:53:30.168Z,1192.50
2017-10-19T11:54:30.300Z,1203.75
2017-10-19T11:55:30.274Z,1203.75
2017-10-19T11:56:30.327Z,1203.75
2017-10-19T11:57:30.384Z,1203.75
2017-10-19T11:58:30.431Z,1209.38
2017-10-19T11:59:30.687Z,1209.38
2017-10-19T12:00:30.545Z,1192.50
2017-10-19T12:01:30.611Z,1181.25
2017-10-19T12:02:30.646Z,1181.25
2017-10-19T12:03:30.704Z,1170.00
2017-10-19T12:04:30.844Z,1170.00
2017-10-19T12:05:30.811Z,1130.63
2017-10-19T12:06:30.862Z,1068.75
2017-10-19T12:07:30.918Z,1001.25
2017-10-19T12:08:30.966Z,1046.25
2017-10-19T12:09:31.103Z,1080.00
2017-10-19T12:10:31.081Z,1125.00
2017-10-19T12:11:31.138Z,1113.75
2017-10-19T12:12:31.185Z,1113.75
2017-10-19T12:13:31.239Z,1113.75
2017-10-19T12:14:31.377Z,1080.00
2017-10-19T12:15:31.352Z,1080.00
2017-10-19T12:16:31.404Z,1074.38
2017-10-19T12:17:31.459Z,1068.75
2017-10-19T12:18:31.515Z,1057.50
2017-10-19T12:19:31.646Z,1046.25
2017-10-19T12:20:31.619Z,1035.00
2017-10-19T12:21:31.674Z,1040.63
2017-10-19T12:22:31.729Z,1035.00
2017-10-19T12:23:31.783Z,1035.00
2017-10-19T12:24:31.902Z,1029.38
2017-10-19T12:25:31.958Z,1023.75
2017-10-19T12:26:31.947Z,1023.75
2017-10-19T12:27:31.999Z,1023.75
2017-10-19T12:28:32.056Z,1023.75
2017-10-19T12:29:32.111Z,1018.13
2017-10-19T12:30:32.235Z,1012.50
2017-10-19T12:31:32.220Z,1012.50
2017-10-19T12:32:32.275Z,1012.50
2017-10-19T12:33:32.327Z,1001.25
2017-10-19T12:34:32.383Z,1001.25
2017-10-19T12:35:32.508Z,1001.25
2017-10-19T12:36:32.493Z,1001.25
2017-10-19T12:37:32.551Z,995.63
2017-10-19T12:38:32.608Z,995.63
2017-10-19T12:39:32.660Z,990.00
2017-10-19T12:40:32.786Z,973.13
2017-10-19T12:41:32.772Z,978.75
2017-10-19T12:42:32.823Z,838.13
2017-10-19T12:43:32.882Z,495.00
2017-10-19T12:44:32.938Z,360.00
2017-10-19T12:45:33.062Z,354.38